Time;durP1;ratioP1;P1;durP2;ratioP2;P2;SDS_P1;SDS_P2;PMS_P1;PMS_P2;Temp;Humidity;BMP_temperature;BMP_pressure;BME280_temperature;BME280_humidity;BME280_pressure;Samples;Min_cycle;Max_cycle;Signal;HPM_P1;HPM_P2
2021/11/16 00:17:51;;;;;;;2.95;2.53;;;;;;;;;;4942705;28;20046;-62
2021/11/16 00:20:17;;;;;;;2.72;2.40;;;;;;;;;;4203355;34;20181;-62
2021/11/16 00:22:44;;;;;;;3.25;2.80;;;;;;;;;;4219662;34;20108;-62
2021/11/16 00:27:40;;;;;;;2.55;2.33;;;;;;;;;;4206126;34;20121;-63
2021/11/16 00:30:06;;;;;;;2.40;2.17;;;;;;;;;;4204183;34;20129;-63
2021/11/16 00:32:32;;;;;;;2.80;2.40;;;;;;;;;;4205853;34;20208;-76
2021/11/16 00:34:58;;;;;;;3.62;2.50;;;;;;;;;;4192642;34;20209;-75
2021/11/16 00:37:27;;;;;;;2.60;2.40;;;;;;;;;;4205956;34;20117;-73
2021/11/16 00:39:58;;;;;;;3.05;2.55;;;;;;;;;;4193132;34;20192;-63
2021/11/16 00:42:24;;;;;;;2.55;2.35;;;;;;;;;;4205901;34;20259;-63
2021/11/16 00:44:50;;;;;;;3.42;2.30;;;;;;;;;;4205687;34;20174;-63
2021/11/16 00:47:16;;;;;;;2.83;2.15;;;;;;;;;;4192957;34;20217;-63
2021/11/16 00:49:42;;;;;;;2.67;2.42;;;;;;;;;;4205835;34;20453;-63
2021/11/16 00:52:08;;;;;;;2.65;2.42;;;;;;;;;;4205790;34;20149;-63
2021/11/16 00:54:34;;;;;;;2.67;2.45;;;;;;;;;;4205723;34;20526;-71
2021/11/16 00:57:00;;;;;;;2.70;2.50;;;;;;;;;;4193175;34;20121;-73
2021/11/16 00:59:25;;;;;;;2.95;2.45;;;;;;;;;;4170245;34;20109;-74
2021/11/16 01:01:51;;;;;;;2.53;2.30;;;;;;;;;;4170032;34;20208;-73
2021/11/16 01:04:17;;;;;;;2.35;2.10;;;;;;;;;;4205347;34;20217;-62
2021/11/16 01:06:44;;;;;;;2.40;2.20;;;;;;;;;;4205644;34;20137;-63
2021/11/16 01:09:10;;;;;;;3.65;2.08;;;;;;;;;;4205778;34;20122;-63
2021/11/16 01:11:36;;;;;;;2.60;2.40;;;;;;;;;;4205586;34;20117;-63
2021/11/16 01:14:02;;;;;;;2.58;2.37;;;;;;;;;;4205593;34;20133;-63
2021/11/16 01:16:28;;;;;;;2.35;2.10;;;;;;;;;;4205414;34;20130;-61
2021/11/16 01:18:54;;;;;;;2.40;2.20;;;;;;;;;;4205485;34;20447;-62
2021/11/16 01:21:20;;;;;;;3.80;2.30;;;;;;;;;;4204790;34;20129;-62
2021/11/16 01:23:46;;;;;;;2.55;2.35;;;;;;;;;;4205559;34;20136;-62
2021/11/16 01:26:13;;;;;;;2.97;2.50;;;;;;;;;;4205324;34;20118;-62
2021/11/16 01:28:39;;;;;;;2.33;2.12;;;;;;;;;;4205626;34;20156;-63
2021/11/16 01:31:06;;;;;;;2.50;2.30;;;;;;;;;;4205387;34;20461;-63
2021/11/16 01:33:43;;;;;;;2.62;2.37;;;;;;;;;;4205361;34;20191;-63
2021/11/16 01:36:10;;;;;;;2.75;2.10;;;;;;;;;;4205435;34;20109;-63
2021/11/16 01:38:36;;;;;;;2.95;2.10;;;;;;;;;;4205466;34;20500;-63
2021/11/16 01:41:02;;;;;;;4.07;2.30;;;;;;;;;;4205465;34;20652;-64
2021/11/16 01:43:28;;;;;;;2.87;2.40;;;;;;;;;;4204890;34;20141;-63
2021/11/16 01:45:53;;;;;;;4.03;2.70;;;;;;;;;;4205160;34;20190;-63
2021/11/16 01:48:19;;;;;;;3.15;2.60;;;;;;;;;;4196377;34;20129;-63
2021/11/16 01:50:46;;;;;;;2.60;2.33;;;;;;;;;;4205159;34;20129;-63
2021/11/16 01:53:12;;;;;;;2.40;2.20;;;;;;;;;;4205317;34;20106;-63
2021/11/16 01:55:38;;;;;;;2.33;2.12;;;;;;;;;;4205338;34;20173;-63
2021/11/16 01:58:04;;;;;;;2.60;2.25;;;;;;;;;;4205123;34;21005;-63
2021/11/16 02:00:32;;;;;;;2.78;1.85;;;;;;;;;;4205353;34;20142;-63
2021/11/16 02:02:58;;;;;;;3.72;2.08;;;;;;;;;;4205035;34;20227;-63
2021/11/16 02:05:54;;;;;;;2.33;2.08;;;;;;;;;;4205332;34;20110;-63
2021/11/16 02:08:21;;;;;;;2.30;2.10;;;;;;;;;;4198979;34;20118;-63
2021/11/16 02:10:48;;;;;;;2.92;2.50;;;;;;;;;;4205242;34;20120;-63
2021/11/16 02:13:17;;;;;;;5.43;2.05;;;;;;;;;;4205051;34;20531;-63
2021/11/16 02:15:43;;;;;;;2.28;2.08;;;;;;;;;;4205062;34;20105;-63
2021/11/16 02:18:10;;;;;;;1.98;1.77;;;;;;;;;;4204986;34;20097;-63
2021/11/16 02:20:37;;;;;;;2.37;2.03;;;;;;;;;;4192451;34;20584;-63
2021/11/16 02:23:04;;;;;;;2.20;2.00;;;;;;;;;;4204786;34;20141;-63
2021/11/16 02:25:30;;;;;;;2.58;2.22;;;;;;;;;;4192187;34;20434;-63
2021/11/16 02:27:56;;;;;;;2.55;2.20;;;;;;;;;;4205030;34;20106;-63
2021/11/16 02:30:23;;;;;;;2.97;2.00;;;;;;;;;;4205358;34;20133;-63
2021/11/16 02:32:49;;;;;;;2.25;2.05;;;;;;;;;;4204601;34;20240;-63
2021/11/16 02:35:16;;;;;;;3.25;1.92;;;;;;;;;;4204857;34;21022;-63
2021/11/16 02:37:42;;;;;;;2.90;2.17;;;;;;;;;;4204955;34;20114;-63
2021/11/16 02:40:09;;;;;;;1.83;1.70;;;;;;;;;;4204823;34;20117;-63
2021/11/16 02:42:34;;;;;;;2.20;1.75;;;;;;;;;;4191826;34;20308;-63
2021/11/16 02:45:01;;;;;;;2.80;2.25;;;;;;;;;;4204932;34;20121;-63
2021/11/16 02:47:27;;;;;;;2.25;2.00;;;;;;;;;;4204851;34;20102;-64
2021/11/16 02:49:56;;;;;;;3.78;1.90;;;;;;;;;;4205117;34;20102;-64
2021/11/16 02:52:23;;;;;;;2.40;1.77;;;;;;;;;;4203409;34;20538;-64
2021/11/16 02:54:50;;;;;;;3.17;1.90;;;;;;;;;;4204904;34;20595;-64
2021/11/16 02:57:16;;;;;;;2.03;1.80;;;;;;;;;;4204963;34;20483;-64
2021/11/16 02:59:42;;;;;;;2.10;1.77;;;;;;;;;;4204560;34;20104;-64
2021/11/16 03:02:10;;;;;;;2.62;1.90;;;;;;;;;;4204607;34;20105;-65
2021/11/16 03:04:36;;;;;;;2.00;1.90;;;;;;;;;;4204726;34;20118;-65
2021/11/16 03:07:04;;;;;;;4.68;1.90;;;;;;;;;;4203255;34;20228;-64
2021/11/16 03:09:31;;;;;;;2.22;2.03;;;;;;;;;;4204716;34;20213;-64
2021/11/16 03:11:58;;;;;;;2.33;1.87;;;;;;;;;;4203431;34;20453;-65
2021/11/16 03:14:24;;;;;;;2.70;1.80;;;;;;;;;;4204480;34;20216;-64
2021/11/16 03:16:50;;;;;;;2.87;1.80;;;;;;;;;;4204633;34;20126;-62
2021/11/16 03:19:16;;;;;;;2.47;2.08;;;;;;;;;;4204623;34;20113;-61
2021/11/16 03:21:54;;;;;;;2.67;1.90;;;;;;;;;;4204429;34;20102;-64
2021/11/16 03:24:22;;;;;;;4.00;1.60;;;;;;;;;;4204359;34;20277;-65
2021/11/16 03:26:48;;;;;;;3.22;1.80;;;;;;;;;;4204607;34;20087;-66
2021/11/16 03:29:17;;;;;;;3.78;2.25;;;;;;;;;;4203163;34;20194;-65
2021/11/16 03:31:50;;;;;;;3.80;2.20;;;;;;;;;;4204520;34;20213;-63
2021/11/16 03:34:15;;;;;;;2.22;2.00;;;;;;;;;;4202908;34;20642;-65
2021/11/16 03:36:42;;;;;;;3.78;2.33;;;;;;;;;;4204205;34;20118;-64
2021/11/16 03:39:07;;;;;;;5.12;2.65;;;;;;;;;;4204368;34;20182;-60
2021/11/16 03:41:33;;;;;;;4.30;2.25;;;;;;;;;;4191252;34;20083;-61
2021/11/16 03:43:59;;;;;;;2.15;1.85;;;;;;;;;;4202574;34;20109;-62
2021/11/16 03:46:25;;;;;;;2.53;2.15;;;;;;;;;;4202649;34;20133;-61
2021/11/16 03:48:51;;;;;;;4.15;2.10;;;;;;;;;;4204245;34;20110;-62
2021/11/16 03:51:17;;;;;;;2.37;2.05;;;;;;;;;;4203773;34;20096;-63
2021/11/16 03:53:43;;;;;;;4.05;2.10;;;;;;;;;;4204213;34;20568;-63
2021/11/16 03:56:09;;;;;;;3.22;2.10;;;;;;;;;;4203845;34;20133;-64
2021/11/16 03:58:36;;;;;;;2.33;2.00;;;;;;;;;;4204334;34;20117;-63
2021/11/16 04:01:05;;;;;;;3.58;2.20;;;;;;;;;;4203972;34;20542;-64
2021/11/16 04:03:33;;;;;;;3.92;2.70;;;;;;;;;;4203898;34;20122;-62
2021/11/16 04:05:59;;;;;;;3.70;3.08;;;;;;;;;;4203805;34;20110;-62
2021/11/16 04:08:25;;;;;;;5.53;3.58;;;;;;;;;;4203791;34;20113;-62
2021/11/16 04:10:51;;;;;;;8.27;3.95;;;;;;;;;;4191027;34;20118;-64
2021/11/16 04:13:17;;;;;;;6.15;3.95;;;;;;;;;;4203163;34;20208;-63
2021/11/16 04:15:45;;;;;;;8.63;5.37;;;;;;;;;;4177339;34;20184;-64
2021/11/16 04:18:11;;;;;;;7.55;4.87;;;;;;;;;;4203460;34;20102;-64
2021/11/16 04:20:39;;;;;;;3.42;2.95;;;;;;;;;;4203769;34;20153;-64
2021/11/16 04:23:07;;;;;;;4.30;3.30;;;;;;;;;;4210761;33;20125;-65
2021/11/16 04:25:33;;;;;;;2.97;2.47;;;;;;;;;;4197037;34;20530;-64
2021/11/16 04:28:00;;;;;;;4.03;2.30;;;;;;;;;;4203713;34;20205;-64
2021/11/16 04:30:26;;;;;;;2.60;2.40;;;;;;;;;;4203820;34;20662;-64
2021/11/16 04:32:52;;;;;;;3.80;2.50;;;;;;;;;;4203508;34;20538;-64
2021/11/16 04:35:18;;;;;;;2.72;2.50;;;;;;;;;;4203824;34;20124;-64
2021/11/16 04:37:47;;;;;;;5.15;2.75;;;;;;;;;;4203767;34;20110;-64
2021/11/16 04:40:15;;;;;;;3.45;2.45;;;;;;;;;;4203956;34;20172;-65
2021/11/16 04:42:41;;;;;;;5.37;2.70;;;;;;;;;;4203375;34;20085;-64
2021/11/16 04:45:10;;;;;;;4.00;2.60;;;;;;;;;;4203537;34;20244;-64
2021/11/16 04:47:49;;;;;;;4.65;2.60;;;;;;;;;;4203685;34;20099;-64
2021/11/16 04:50:33;;;;;;;3.05;2.72;;;;;;;;;;4192078;34;20178;-64
2021/11/16 05:04:10;;;;;;;3.70;2.58;;;;;;;;;;4197093;34;20143;-64
2021/11/16 05:06:36;;;;;;;2.65;2.35;;;;;;;;;;4205513;34;20245;-64
2021/11/16 05:09:02;;;;;;;4.05;2.47;;;;;;;;;;4205721;34;20121;-64
2021/11/16 05:11:28;;;;;;;6.68;2.40;;;;;;;;;;4205640;34;20106;-65
2021/11/16 05:13:54;;;;;;;2.37;2.17;;;;;;;;;;4205293;34;20217;-64
2021/11/16 05:16:21;;;;;;;3.83;2.53;;;;;;;;;;4205353;34;20102;-64
2021/11/16 05:18:47;;;;;;;6.50;3.50;;;;;;;;;;4202348;34;20114;-64
2021/11/16 05:21:13;;;;;;;13.05;3.10;;;;;;;;;;4205210;34;20102;-64
2021/11/16 05:23:44;;;;;;;5.25;2.50;;;;;;;;;;4205199;34;20131;-64
2021/11/16 05:26:10;;;;;;;7.37;2.97;;;;;;;;;;4191911;34;20141;-64
2021/11/16 05:28:36;;;;;;;4.28;3.00;;;;;;;;;;4205267;34;20116;-64
2021/11/16 05:31:02;;;;;;;10.38;2.70;;;;;;;;;;4184586;34;20180;-65
2021/11/16 05:33:28;;;;;;;6.20;3.15;;;;;;;;;;4190259;34;20133;-64
2021/11/16 05:35:58;;;;;;;12.20;3.35;;;;;;;;;;4204762;34;20110;-64
2021/11/16 05:38:32;;;;;;;4.95;2.62;;;;;;;;;;4204917;34;20082;-64
2021/11/16 05:40:58;;;;;;;2.65;2.10;;;;;;;;;;4191723;34;20137;-64
2021/11/16 05:43:24;;;;;;;3.37;1.77;;;;;;;;;;4204792;34;20141;-64
2021/11/16 05:45:50;;;;;;;3.15;1.90;;;;;;;;;;4204590;34;21085;-63
2021/11/16 05:48:16;;;;;;;5.85;2.25;;;;;;;;;;4204866;34;20217;-64
2021/11/16 05:50:42;;;;;;;3.97;2.20;;;;;;;;;;4204764;34;20225;-64
2021/11/16 05:53:09;;;;;;;4.55;2.10;;;;;;;;;;4203584;34;20116;-64
2021/11/16 05:55:35;;;;;;;7.53;2.33;;;;;;;;;;4204675;34;20200;-64
2021/11/16 05:58:00;;;;;;;3.47;1.70;;;;;;;;;;4204877;34;20118;-65
2021/11/16 06:00:26;;;;;;;2.28;1.90;;;;;;;;;;4203420;34;20121;-64
2021/11/16 06:02:53;;;;;;;5.65;2.25;;;;;;;;;;4204538;34;20162;-64
2021/11/16 06:05:19;;;;;;;2.37;1.77;;;;;;;;;;4204520;34;20132;-64
2021/11/16 06:07:45;;;;;;;4.72;2.00;;;;;;;;;;4204377;34;20695;-64
2021/11/16 06:10:11;;;;;;;4.07;1.90;;;;;;;;;;4205207;34;20181;-63
2021/11/16 06:12:37;;;;;;;3.78;1.95;;;;;;;;;;4204458;34;20441;-63
2021/11/16 06:15:04;;;;;;;2.45;1.95;;;;;;;;;;4204914;34;20156;-64
2021/11/16 06:17:30;;;;;;;3.03;1.90;;;;;;;;;;4204873;34;20090;-63
2021/11/16 06:19:56;;;;;;;4.25;2.05;;;;;;;;;;4204951;34;20124;-63
2021/11/16 06:22:22;;;;;;;3.35;1.98;;;;;;;;;;4204384;34;20409;-62
2021/11/16 06:24:48;;;;;;;3.92;2.05;;;;;;;;;;4204988;34;20449;-62
2021/11/16 06:27:14;;;;;;;4.20;1.62;;;;;;;;;;4204464;34;20102;-62
2021/11/16 06:29:40;;;;;;;7.10;2.03;;;;;;;;;;4204744;34;20114;-63
2021/11/16 06:32:07;;;;;;;6.30;1.83;;;;;;;;;;4204484;34;20113;-62
2021/11/16 06:34:33;;;;;;;3.72;1.90;;;;;;;;;;4204922;34;20133;-63
2021/11/16 06:36:59;;;;;;;1.70;1.60;;;;;;;;;;4204429;34;20204;-63
2021/11/16 06:39:25;;;;;;;4.55;2.05;;;;;;;;;;4204917;34;20121;-63
2021/11/16 06:41:51;;;;;;;2.70;2.00;;;;;;;;;;4204023;34;20507;-64
2021/11/16 06:44:18;;;;;;;3.17;2.17;;;;;;;;;;4204568;34;20102;-65
2021/11/16 06:46:44;;;;;;;2.30;2.08;;;;;;;;;;4204403;34;20498;-64
2021/11/16 06:49:11;;;;;;;2.60;1.83;;;;;;;;;;4204409;34;20140;-64
2021/11/16 06:51:38;;;;;;;3.65;1.80;;;;;;;;;;4204336;34;20112;-65
2021/11/16 06:54:06;;;;;;;2.83;2.00;;;;;;;;;;4203432;34;20446;-65
2021/11/16 06:56:31;;;;;;;3.50;1.70;;;;;;;;;;4204067;34;20130;-65
2021/11/16 06:58:57;;;;;;;3.55;1.70;;;;;;;;;;4204287;34;20122;-64
2021/11/16 07:01:23;;;;;;;2.35;1.67;;;;;;;;;;4204429;34;20137;-64
2021/11/16 07:03:49;;;;;;;1.48;1.37;;;;;;;;;;4203849;34;20118;-63
2021/11/16 07:06:15;;;;;;;4.30;1.80;;;;;;;;;;4190534;34;20133;-64
2021/11/16 07:08:42;;;;;;;7.03;1.85;;;;;;;;;;4204025;34;20133;-64
2021/11/16 07:11:18;;;;;;;4.43;1.75;;;;;;;;;;4203929;34;20125;-64
2021/11/16 07:14:07;;;;;;;3.80;1.73;;;;;;;;;;4203642;34;20117;-64
2021/11/16 07:16:35;;;;;;;5.47;1.77;;;;;;;;;;4203792;34;20117;-64
2021/11/16 07:19:02;;;;;;;3.03;1.80;;;;;;;;;;4203209;34;20094;-64
2021/11/16 07:21:40;;;;;;;3.65;1.98;;;;;;;;;;4204096;34;20310;-64
2021/11/16 07:24:11;;;;;;;4.95;1.90;;;;;;;;;;4192452;34;20097;-64
2021/11/16 07:26:41;;;;;;;3.10;1.85;;;;;;;;;;4203715;34;20205;-64
2021/11/16 07:29:14;;;;;;;5.75;1.95;;;;;;;;;;4191293;34;20101;-64
2021/11/16 07:31:42;;;;;;;3.28;1.98;;;;;;;;;;4203516;34;20519;-64
2021/11/16 07:34:17;;;;;;;5.28;2.00;;;;;;;;;;4204111;34;20094;-64
2021/11/16 07:37:06;;;;;;;3.85;1.92;;;;;;;;;;4203621;34;20475;-63
2021/11/16 07:39:53;;;;;;;3.67;2.03;;;;;;;;;;4203564;34;20136;-64
2021/11/16 07:42:21;;;;;;;4.57;2.33;;;;;;;;;;4203402;34;20136;-63
2021/11/16 07:45:12;;;;;;;3.67;1.87;;;;;;;;;;4203789;34;20544;-63
2021/11/16 07:47:42;;;;;;;4.72;1.90;;;;;;;;;;4202196;34;20117;-63
2021/11/16 07:50:13;;;;;;;4.40;2.60;;;;;;;;;;4204247;34;20490;-64
2021/11/16 07:52:39;;;;;;;7.28;2.30;;;;;;;;;;4202843;34;20137;-64
2021/11/16 07:55:06;;;;;;;3.95;1.62;;;;;;;;;;4202279;34;20534;-64
2021/11/16 07:57:42;;;;;;;4.03;1.70;;;;;;;;;;4199287;34;20125;-63
2021/11/16 08:00:21;;;;;;;5.78;1.80;;;;;;;;;;4204040;34;20653;-64
2021/11/16 08:02:51;;;;;;;2.55;1.83;;;;;;;;;;4203338;34;20304;-62
2021/11/16 08:05:38;;;;;;;3.05;2.28;;;;;;;;;;4203753;34;20581;-61
2021/11/16 08:08:15;;;;;;;3.10;2.03;;;;;;;;;;4192931;34;20145;-63
2021/11/16 08:10:44;;;;;;;4.60;1.98;;;;;;;;;;4203744;34;20101;-63
2021/11/16 08:13:19;;;;;;;3.50;1.65;;;;;;;;;;4203722;34;20113;-64
2021/11/16 08:15:45;;;;;;;2.15;1.90;;;;;;;;;;4203429;34;20605;-63
2021/11/16 08:18:14;;;;;;;6.75;2.22;;;;;;;;;;4203036;34;20109;-64
2021/11/16 08:20:43;;;;;;;5.18;2.28;;;;;;;;;;4203072;34;20176;-64
2021/11/16 08:23:09;;;;;;;4.37;1.70;;;;;;;;;;4203412;34;20102;-64
2021/11/16 08:25:39;;;;;;;3.67;2.30;;;;;;;;;;4203812;34;20133;-65
2021/11/16 08:28:05;;;;;;;3.62;2.12;;;;;;;;;;4201611;34;20114;-65
2021/11/16 08:30:34;;;;;;;5.07;2.17;;;;;;;;;;4191588;34;20128;-63
2021/11/16 08:33:01;;;;;;;4.43;2.25;;;;;;;;;;4205019;34;20102;-63
2021/11/16 08:35:27;;;;;;;3.00;1.90;;;;;;;;;;4193106;34;20679;-63
2021/11/16 08:38:00;;;;;;;3.28;1.75;;;;;;;;;;4205028;34;20185;-63
2021/11/16 08:40:28;;;;;;;2.17;1.98;;;;;;;;;;4205333;34;20540;-63
2021/11/16 08:43:00;;;;;;;3.80;2.10;;;;;;;;;;4204782;34;20124;-64
2021/11/16 08:45:28;;;;;;;5.18;1.90;;;;;;;;;;4191836;34;20094;-65
2021/11/16 08:48:23;;;;;;;4.18;1.87;;;;;;;;;;4203711;34;20122;-65
2021/11/16 08:50:56;;;;;;;7.78;2.10;;;;;;;;;;4205203;34;20129;-63
2021/11/16 08:53:26;;;;;;;2.90;1.90;;;;;;;;;;4204655;34;20109;-64
2021/11/16 08:55:53;;;;;;;9.45;2.70;;;;;;;;;;4204241;34;20567;-64
2021/11/16 08:58:19;;;;;;;4.53;1.65;;;;;;;;;;4191246;34;20482;-64
2021/11/16 09:00:50;;;;;;;3.17;2.00;;;;;;;;;;4191413;34;20198;-64
2021/11/16 09:03:26;;;;;;;3.28;2.28;;;;;;;;;;4189857;34;20217;-64
2021/11/16 09:05:53;;;;;;;3.15;1.92;;;;;;;;;;4190566;34;20129;-65
2021/11/16 09:08:27;;;;;;;5.90;2.00;;;;;;;;;;4190155;34;20129;-65
2021/11/16 09:11:16;;;;;;;5.85;2.10;;;;;;;;;;4190165;34;20118;-64
2021/11/16 09:13:43;;;;;;;5.35;2.25;;;;;;;;;;4190993;34;20244;-64
2021/11/16 09:16:19;;;;;;;7.37;2.25;;;;;;;;;;4196488;34;20118;-65
2021/11/16 09:18:51;;;;;;;6.72;2.30;;;;;;;;;;4204097;34;20189;-65
2021/11/16 09:21:19;;;;;;;1.67;1.48;;;;;;;;;;4198632;34;20479;-65
2021/11/16 09:23:48;;;;;;;5.57;1.90;;;;;;;;;;4191543;34;20201;-64
2021/11/16 09:29:21;;;;;;;7.87;2.30;;;;;;;;;;4191283;34;20093;-66
2021/11/16 09:31:51;;;;;;;9.32;2.50;;;;;;;;;;4199873;34;20144;-64
2021/11/16 09:34:17;;;;;;;3.80;2.00;;;;;;;;;;4192149;34;20105;-65
2021/11/16 09:36:45;;;;;;;6.20;2.00;;;;;;;;;;4193986;34;20140;-64
2021/11/16 09:39:16;;;;;;;6.12;3.28;;;;;;;;;;4178220;34;20570;-63
2021/11/16 09:41:44;;;;;;;5.82;2.10;;;;;;;;;;4190735;34;20129;-63
2021/11/16 09:44:42;;;;;;;4.10;2.17;;;;;;;;;;4197950;34;20129;-65
2021/11/16 09:47:16;;;;;;;5.03;2.05;;;;;;;;;;4204066;34;20110;-64
2021/11/16 09:49:49;;;;;;;2.22;1.98;;;;;;;;;;4191602;34;20122;-64
2021/11/16 09:52:17;;;;;;;2.17;1.80;;;;;;;;;;4200367;34;20123;-64
2021/11/16 09:54:50;;;;;;;2.62;1.70;;;;;;;;;;4203354;34;20489;-64
2021/11/16 09:57:17;;;;;;;3.40;1.90;;;;;;;;;;4204342;34;20649;-64
2021/11/16 09:59:44;;;;;;;4.28;1.85;;;;;;;;;;4204187;34;20132;-65
2021/11/16 10:02:27;;;;;;;5.32;2.42;;;;;;;;;;4190992;34;20101;-65
2021/11/16 10:04:54;;;;;;;6.35;2.20;;;;;;;;;;4204729;34;20102;-65
2021/11/16 10:07:20;;;;;;;5.35;2.10;;;;;;;;;;4204870;34;20102;-65
2021/11/16 10:09:47;;;;;;;3.95;2.03;;;;;;;;;;4204530;34;20535;-65
2021/11/16 10:12:13;;;;;;;4.20;1.95;;;;;;;;;;4191726;34;20113;-64
2021/11/16 10:14:38;;;;;;;5.22;2.45;;;;;;;;;;4189465;34;20514;-64
2021/11/16 10:17:05;;;;;;;4.40;1.60;;;;;;;;;;4191994;34;20210;-65
2021/11/16 10:19:31;;;;;;;2.95;2.10;;;;;;;;;;4204478;34;20117;-65
2021/11/16 10:21:57;;;;;;;4.18;2.28;;;;;;;;;;4204261;34;20122;-64
2021/11/16 10:24:32;;;;;;;3.25;2.80;;;;;;;;;;4203188;34;20487;-65
2021/11/16 10:26:59;;;;;;;;;;;;;;;;;;4205257;34;20220;-64
2021/11/16 10:29:25;;;;;;;3.62;3.28;;;;;;;;;;4204491;34;19992;-65
2021/11/16 10:31:51;;;;;;;3.10;2.45;;;;;;;;;;4204546;34;20117;-64
2021/11/16 10:34:17;;;;;;;2.87;2.00;;;;;;;;;;4191272;34;20128;-65
2021/11/16 10:36:44;;;;;;;4.47;2.20;;;;;;;;;;4189239;34;20136;-64
2021/11/16 10:39:10;;;;;;;3.95;2.10;;;;;;;;;;4204952;34;20130;-65
2021/11/16 10:41:37;;;;;;;7.65;2.45;;;;;;;;;;4204703;34;20109;-65
2021/11/16 10:44:08;;;;;;;5.45;2.10;;;;;;;;;;4204322;34;20526;-64
2021/11/16 10:46:36;;;;;;;3.55;2.20;;;;;;;;;;4204149;34;20126;-65
2021/11/16 10:49:09;;;;;;;6.28;2.22;;;;;;;;;;4203535;34;20121;-64
2021/11/16 10:51:35;;;;;;;2.55;2.10;;;;;;;;;;4204114;34;20507;-65
2021/11/16 10:54:02;;;;;;;5.20;2.00;;;;;;;;;;4203310;34;20108;-65
2021/11/16 10:56:31;;;;;;;4.53;2.25;;;;;;;;;;4204702;34;20094;-64
2021/11/16 10:59:07;;;;;;;4.43;2.45;;;;;;;;;;4204372;34;20129;-64
2021/11/16 11:01:47;;;;;;;3.97;2.35;;;;;;;;;;4191394;34;20089;-65
2021/11/16 11:04:14;;;;;;;3.47;2.30;;;;;;;;;;4204539;34;20113;-65
2021/11/16 11:06:43;;;;;;;3.35;2.60;;;;;;;;;;4204335;34;20118;-65
2021/11/16 11:09:09;;;;;;;6.60;2.60;;;;;;;;;;4204668;34;20145;-64
2021/11/16 11:11:37;;;;;;;3.35;2.28;;;;;;;;;;4204089;34;20648;-65
2021/11/16 11:14:04;;;;;;;4.35;2.25;;;;;;;;;;4204460;34;20110;-65
2021/11/16 11:16:32;;;;;;;2.90;2.25;;;;;;;;;;4204336;34;20215;-64
2021/11/16 11:18:58;;;;;;;6.05;2.50;;;;;;;;;;4204353;34;20184;-65
2021/11/16 11:21:42;;;;;;;5.03;2.47;;;;;;;;;;4204401;34;20105;-65
2021/11/16 11:24:45;;;;;;;3.75;2.60;;;;;;;;;;4203271;34;20662;-64
2021/11/16 11:29:53;;;;;;;3.40;3.10;;;;;;;;;;4203386;34;20209;-64
2021/11/16 11:32:41;;;;;;;6.60;2.78;;;;;;;;;;4190560;34;20110;-65
2021/11/16 11:35:10;;;;;;;4.72;2.90;;;;;;;;;;4202702;34;20140;-65
2021/11/16 11:37:43;;;;;;;4.10;2.70;;;;;;;;;;4202613;34;20102;-64
2021/11/16 11:40:14;;;;;;;5.75;2.50;;;;;;;;;;4190161;34;20122;-65
2021/11/16 11:42:46;;;;;;;5.53;2.67;;;;;;;;;;4202411;34;20556;-65
2021/11/16 11:45:24;;;;;;;6.37;2.95;;;;;;;;;;4203779;34;20122;-65
2021/11/16 11:47:53;;;;;;;7.65;2.75;;;;;;;;;;4203586;34;20128;-65
2021/11/16 11:50:33;;;;;;;2.95;2.65;;;;;;;;;;4191507;34;20109;-64
2021/11/16 11:53:03;;;;;;;7.07;2.70;;;;;;;;;;4202936;34;20105;-65
2021/11/16 11:55:30;;;;;;;4.18;2.92;;;;;;;;;;4204152;34;20125;-64
2021/11/16 11:57:56;;;;;;;4.68;2.85;;;;;;;;;;4203897;34;20221;-65
2021/11/16 12:00:24;;;;;;;6.57;2.45;;;;;;;;;;4203606;34;20098;-64
2021/11/16 12:02:50;;;;;;;4.30;2.50;;;;;;;;;;4203401;34;20133;-64
2021/11/16 12:05:16;;;;;;;7.05;2.22;;;;;;;;;;4191887;34;20511;-66
2021/11/16 12:07:42;;;;;;;2.50;2.20;;;;;;;;;;4205381;34;20104;-64
2021/11/16 12:10:08;;;;;;;2.50;2.30;;;;;;;;;;4192518;34;20114;-65
2021/11/16 12:12:33;;;;;;;3.03;2.30;;;;;;;;;;4205235;34;20145;-63
2021/11/16 12:15:12;;;;;;;4.50;2.83;;;;;;;;;;4206166;34;20166;-64
2021/11/16 12:17:49;;;;;;;4.40;2.62;;;;;;;;;;4192599;34;20209;-65
2021/11/16 12:20:40;;;;;;;4.57;2.35;;;;;;;;;;4206098;34;20102;-65
2021/11/16 12:23:09;;;;;;;3.78;2.47;;;;;;;;;;4204732;34;20093;-66
2021/11/16 12:25:35;;;;;;;8.50;2.53;;;;;;;;;;4205623;34;20145;-66
2021/11/16 12:28:00;;;;;;;9.10;2.30;;;;;;;;;;4205690;34;20188;-65
2021/11/16 12:30:44;;;;;;;4.70;2.53;;;;;;;;;;4181494;34;20118;-64
2021/11/16 12:33:10;;;;;;;3.85;2.53;;;;;;;;;;4193123;34;20101;-66
2021/11/16 12:35:44;;;;;;;9.82;2.85;;;;;;;;;;4205575;34;20499;-65
2021/11/16 12:38:16;;;;;;;3.08;2.60;;;;;;;;;;4191794;34;20474;-65
2021/11/16 12:40:43;;;;;;;4.35;2.55;;;;;;;;;;4205522;34;20106;-65
2021/11/16 12:43:15;;;;;;;4.70;2.70;;;;;;;;;;4205321;34;20134;-65
2021/11/16 12:45:46;;;;;;;4.30;3.42;;;;;;;;;;4206031;34;20112;-66
2021/11/16 12:48:13;;;;;;;3.92;2.67;;;;;;;;;;4205180;34;20209;-66
2021/11/16 12:50:59;;;;;;;3.37;2.40;;;;;;;;;;4192687;34;20149;-66
2021/11/16 12:53:50;;;;;;;2.87;2.37;;;;;;;;;;4194731;34;20201;-65
2021/11/16 12:56:16;;;;;;;6.87;2.50;;;;;;;;;;4204760;34;20320;-65
2021/11/16 12:58:53;;;;;;;7.15;2.75;;;;;;;;;;4191649;34;20125;-66
2021/11/16 13:01:52;;;;;;;5.00;2.50;;;;;;;;;;4191739;34;20108;-64
2021/11/16 13:04:46;;;;;;;3.58;2.60;;;;;;;;;;4160963;34;20133;-64
2021/11/16 13:07:41;;;;;;;3.67;2.90;;;;;;;;;;4189368;34;20189;-64
2021/11/16 13:10:15;;;;;;;6.32;3.30;;;;;;;;;;4191503;34;20110;-64
2021/11/16 13:12:57;;;;;;;5.03;3.30;;;;;;;;;;4191020;34;20210;-65
2021/11/16 13:15:32;;;;;;;2.97;2.50;;;;;;;;;;4191920;34;20758;-64
2021/11/16 13:18:09;;;;;;;3.40;2.62;;;;;;;;;;4190671;34;20208;-64
2021/11/16 13:20:36;;;;;;;4.35;2.87;;;;;;;;;;4191636;34;20185;-65
2021/11/16 13:23:06;;;;;;;3.35;2.85;;;;;;;;;;4191163;34;20113;-65
2021/11/16 13:26:00;;;;;;;2.72;2.53;;;;;;;;;;4191416;34;20193;-64
2021/11/16 13:31:09;;;;;;;5.65;3.33;;;;;;;;;;4204452;34;20109;-64
2021/11/16 13:33:51;;;;;;;3.67;3.10;;;;;;;;;;4205429;34;20527;-66
2021/11/16 13:36:22;;;;;;;4.22;3.08;;;;;;;;;;4205717;34;20109;-65
2021/11/16 13:39:05;;;;;;;4.37;3.47;;;;;;;;;;4192605;34;20129;-65
2021/11/16 13:41:40;;;;;;;4.75;3.37;;;;;;;;;;4205385;34;20510;-65
2021/11/16 13:44:28;;;;;;;5.05;3.10;;;;;;;;;;4205454;34;20106;-66
2021/11/16 13:47:01;;;;;;;5.65;3.40;;;;;;;;;;4205310;34;20110;-65
2021/11/16 13:49:40;;;;;;;5.40;3.50;;;;;;;;;;4205322;34;20234;-65
2021/11/16 13:52:12;;;;;;;4.10;3.30;;;;;;;;;;4205251;34;20201;-66
2021/11/16 13:54:38;;;;;;;6.25;3.00;;;;;;;;;;4205450;34;20104;-65
2021/11/16 13:57:06;;;;;;;4.15;3.40;;;;;;;;;;4205185;34;20717;-66
2021/11/16 13:59:33;;;;;;;5.03;3.50;;;;;;;;;;4205371;34;20118;-65
2021/11/16 14:02:03;;;;;;;5.40;3.42;;;;;;;;;;4205411;34;20131;-64
2021/11/16 14:04:30;;;;;;;4.37;3.55;;;;;;;;;;4205258;34;20630;-65
2021/11/16 14:07:09;;;;;;;4.68;3.67;;;;;;;;;;4205015;34;20111;-65
2021/11/16 14:09:34;;;;;;;5.18;3.20;;;;;;;;;;4204999;34;20105;-64
2021/11/16 14:12:00;;;;;;;5.25;3.12;;;;;;;;;;4204918;34;20117;-64
2021/11/16 14:14:27;;;;;;;3.33;3.03;;;;;;;;;;4204999;34;20118;-65
2021/11/16 14:16:56;;;;;;;4.68;3.12;;;;;;;;;;4204862;34;20121;-64
2021/11/16 14:19:22;;;;;;;4.82;3.22;;;;;;;;;;4204639;34;20149;-64
2021/11/16 14:21:51;;;;;;;4.78;3.22;;;;;;;;;;4204756;34;20548;-64
2021/11/16 14:24:46;;;;;;;4.75;2.90;;;;;;;;;;4204917;34;20118;-65
2021/11/16 14:27:13;;;;;;;3.37;3.08;;;;;;;;;;4195756;34;20106;-65
2021/11/16 14:29:39;;;;;;;7.03;3.47;;;;;;;;;;4191962;34;20117;-65
2021/11/16 14:32:05;;;;;;;3.05;2.75;;;;;;;;;;4204978;34;20121;-65
2021/11/16 14:34:31;;;;;;;4.40;3.00;;;;;;;;;;4191827;34;20640;-65
2021/11/16 14:36:59;;;;;;;3.12;2.80;;;;;;;;;;4205097;34;20095;-64
2021/11/16 14:39:33;;;;;;;3.87;3.10;;;;;;;;;;4202941;34;20097;-64
2021/11/16 14:42:11;;;;;;;3.30;2.85;;;;;;;;;;4192209;34;20092;-65
2021/11/16 14:44:50;;;;;;;3.65;3.00;;;;;;;;;;4204655;34;20122;-65
2021/11/16 14:47:20;;;;;;;4.12;2.80;;;;;;;;;;4192109;34;20198;-65
2021/11/16 14:52:18;;;;;;;3.47;2.90;;;;;;;;;;4204745;34;20113;-65
2021/11/16 14:54:44;;;;;;;4.18;3.30;;;;;;;;;;4192034;34;20101;-65
2021/11/16 14:57:10;;;;;;;3.80;3.12;;;;;;;;;;4204783;34;20129;-65
2021/11/16 14:59:36;;;;;;;5.28;3.30;;;;;;;;;;4204789;34;20241;-65
2021/11/16 15:02:03;;;;;;;5.28;3.72;;;;;;;;;;4205023;34;20101;-65
2021/11/16 15:04:37;;;;;;;5.57;3.28;;;;;;;;;;4191856;34;20114;-66
2021/11/16 15:07:25;;;;;;;4.95;3.25;;;;;;;;;;4192553;34;20534;-66
2021/11/16 15:09:55;;;;;;;4.95;3.05;;;;;;;;;;4192059;34;20128;-64
2021/11/16 15:12:21;;;;;;;7.65;3.33;;;;;;;;;;4204599;34;20098;-65
2021/11/16 15:14:50;;;;;;;7.85;3.62;;;;;;;;;;4191795;34;20617;-64
2021/11/16 15:17:16;;;;;;;3.97;3.35;;;;;;;;;;4204531;34;20116;-65
2021/11/16 15:20:13;;;;;;;7.20;3.53;;;;;;;;;;4188355;34;20126;-64
2021/11/16 15:22:48;;;;;;;3.92;2.78;;;;;;;;;;4203973;34;20208;-64
2021/11/16 15:25:19;;;;;;;10.57;3.55;;;;;;;;;;4191273;34;20114;-64
2021/11/16 15:28:08;;;;;;;4.37;3.58;;;;;;;;;;4204149;34;20566;-64
2021/11/16 15:30:36;;;;;;;5.57;3.65;;;;;;;;;;4204006;34;20106;-64
2021/11/16 15:33:03;;;;;;;5.43;3.95;;;;;;;;;;4204525;34;20118;-64
2021/11/16 15:35:39;;;;;;;5.82;3.65;;;;;;;;;;4203725;34;20457;-64
2021/11/16 15:38:06;;;;;;;3.80;3.37;;;;;;;;;;4191124;34;20156;-65
2021/11/16 15:40:57;;;;;;;3.83;3.42;;;;;;;;;;4203442;34;20113;-71